Time;durP1;ratioP1;P1;durP2;ratioP2;P2;SDS_P1;SDS_P2;PMS_P1;PMS_P2;Temp;Humidity;BMP_temperature;BMP_pressure;BME280_temperature;BME280_humidity;BME280_pressure;Samples;Min_cycle;Max_cycle;Signal;HPM_P1;HPM_P2
2022/01/02 00:00:13;;;;;;;21.08;12.30;;;256.20;1945.60;;;;;;5041941;28;20403;-67
2022/01/02 00:02:41;;;;;;;17.83;11.95;;;256.20;1971.20;;;;;;5034887;28;20487;-64
2022/01/02 00:05:16;;;;;;;19.10;11.23;;;256.20;1945.60;;;;;;5038874;28;20029;-64
2022/01/02 00:07:45;;;;;;;17.10;10.88;;;256.20;1945.60;;;;;;5052286;28;20033;-64
2022/01/02 00:10:12;;;;;;;17.88;10.57;;;256.10;1971.20;;;;;;5053086;28;20036;-63
2022/01/02 00:12:44;;;;;;;17.50;10.10;;;256.20;1945.60;;;;;;5049465;28;20029;-65
2022/01/02 00:15:12;;;;;;;14.10;9.82;;;256.10;1971.20;;;;;;5047259;28;20025;-65
2022/01/02 00:17:39;;;;;;;14.43;9.23;;;256.20;1945.60;;;;;;5038474;28;20048;-61
2022/01/02 00:20:11;;;;;;;17.10;10.35;;;256.20;1945.60;;;;;;5043503;28;20064;-59
2022/01/02 00:22:41;;;;;;;17.75;11.27;;;256.20;1945.60;;;;;;5039512;28;20025;-63
2022/01/02 00:25:24;;;;;;;16.90;11.15;;;256.10;1945.60;;;;;;5041688;28;20049;-61
2022/01/02 00:27:52;;;;;;;19.92;11.75;;;256.10;1945.60;;;;;;5041606;28;20112;-64
2022/01/02 00:30:18;;;;;;;20.92;12.68;;;256.00;1945.60;;;;;;5047355;28;20463;-65
2022/01/02 00:32:44;;;;;;;22.55;13.38;;;256.10;1945.60;;;;;;5052974;28;20032;-65
2022/01/02 00:35:10;;;;;;;24.70;15.00;;;256.00;1945.60;;;;;;5047511;28;20021;-64
2022/01/02 00:37:36;;;;;;;25.65;14.93;;;256.10;1971.20;;;;;;5048546;28;20032;-65
2022/01/02 00:40:03;;;;;;;23.63;14.73;;;256.10;1945.60;;;;;;5047298;28;20041;-68
2022/01/02 00:42:39;;;;;;;26.90;13.77;;;256.00;1971.20;;;;;;5046484;28;20041;-66
2022/01/02 00:45:23;;;;;;;21.92;13.45;;;256.00;1945.60;;;;;;5047200;28;20025;-65
2022/01/02 00:47:51;;;;;;;21.15;12.05;;;256.00;1945.60;;;;;;5038075;28;20054;-65
2022/01/02 00:50:25;;;;;;;23.35;12.85;;;256.00;1945.60;;;;;;5036869;28;20045;-65
2022/01/02 00:52:50;;;;;;;24.15;12.95;;;256.00;1945.60;;;;;;5035226;28;20281;-67
2022/01/02 00:55:21;;;;;;;25.65;14.15;;;256.10;1945.60;;;;;;5050880;28;20107;-65
2022/01/02 00:58:10;;;;;;;26.00;14.20;;;256.10;1945.60;;;;;;5056599;28;20036;-64
2022/01/02 01:00:36;;;;;;;26.42;13.95;;;256.10;1945.60;;;;;;5051775;28;20494;-64
2022/01/02 01:03:09;;;;;;;24.95;13.95;;;256.00;1971.20;;;;;;5056581;28;20033;-64
2022/01/02 01:05:37;;;;;;;22.27;12.63;;;256.00;1945.60;;;;;;5052107;28;20387;-64
2022/01/02 01:08:07;;;;;;;24.85;12.82;;;256.00;1945.60;;;;;;5053624;28;20051;-65
2022/01/02 01:10:36;;;;;;;23.73;13.55;;;256.00;1971.20;;;;;;5056633;28;20029;-64
2022/01/02 01:13:05;;;;;;;26.60;15.05;;;256.00;1945.60;;;;;;5056226;28;20100;-64
2022/01/02 01:15:32;;;;;;;25.35;14.65;;;256.00;1971.20;;;;;;5056140;28;20060;-63
2022/01/02 01:18:00;;;;;;;28.88;15.98;;;256.00;1971.20;;;;;;5048043;28;20040;-64
2022/01/02 01:20:28;;;;;;;22.17;12.90;;;256.00;1945.60;;;;;;5035644;28;20022;-63
2022/01/02 01:22:54;;;;;;;23.90;12.10;;;256.00;1971.20;;;;;;5038404;28;20029;-64
2022/01/02 01:25:22;;;;;;;20.17;11.73;;;256.00;1945.60;;;;;;5046515;28;20016;-64
2022/01/02 01:27:50;;;;;;;17.25;11.10;;;256.00;1945.60;;;;;;5045904;28;20022;-64
2022/01/02 01:30:18;;;;;;;16.67;11.15;;;256.00;1971.20;;;;;;5044425;28;20025;-66
2022/01/02 01:32:45;;;;;;;19.92;12.90;;;256.00;1945.60;;;;;;5050114;28;20021;-63
2022/01/02 01:35:12;;;;;;;22.58;14.05;;;256.00;1945.60;;;;;;5052405;28;20116;-65
2022/01/02 01:37:38;;;;;;;22.88;13.90;;;256.00;1971.20;;;;;;5041830;28;20021;-65
2022/01/02 01:40:06;;;;;;;25.92;14.48;;;256.00;1920.00;;;;;;5035588;28;20451;-62
2022/01/02 01:42:37;;;;;;;19.60;12.25;;;256.00;1945.60;;;;;;5040872;28;20037;-65
2022/01/02 01:47:47;;;;;;;15.98;9.43;;;256.00;1945.60;;;;;;5043583;28;20017;-63
2022/01/02 01:50:13;;;;;;;20.15;11.43;;;231.30;1945.60;;;;;;5043517;28;20018;-64
2022/01/02 01:52:39;;;;;;;20.83;13.40;;;231.30;1920.00;;;;;;5045828;28;20082;-63
2022/01/02 01:55:06;;;;;;;23.27;13.20;;;231.30;1920.00;;;;;;5045823;28;20017;-63
2022/01/02 01:57:32;;;;;;;23.27;13.13;;;231.20;1945.60;;;;;;5046566;28;20025;-64
2022/01/02 01:59:58;;;;;;;22.75;13.32;;;231.20;1945.60;;;;;;5052945;28;20490;-64
2022/01/02 02:02:25;;;;;;;21.92;12.93;;;231.20;1945.60;;;;;;5049100;28;20029;-65
2022/01/02 02:04:51;;;;;;;20.65;11.55;;;231.20;1945.60;;;;;;5054745;28;20025;-64
2022/01/02 02:07:17;;;;;;;16.67;10.32;;;231.20;1920.00;;;;;;5055481;28;20112;-66
2022/01/02 02:10:00;;;;;;;17.90;9.75;;;231.10;1945.60;;;;;;5054969;28;20056;-65
2022/01/02 02:12:26;;;;;;;15.15;8.48;;;231.10;1945.60;;;;;;5054457;28;20502;-66
2022/01/02 02:14:52;;;;;;;15.15;9.95;;;231.20;1920.00;;;;;;5050799;28;20029;-65
2022/01/02 02:17:17;;;;;;;17.50;9.88;;;231.10;1945.60;;;;;;5035543;28;20432;-64
2022/01/02 02:19:43;;;;;;;14.23;9.23;;;231.10;1945.60;;;;;;5034342;28;20025;-65
2022/01/02 02:22:09;;;;;;;12.65;8.75;;;231.10;1945.60;;;;;;5034543;28;20092;-65
2022/01/02 02:24:35;;;;;;;14.35;8.73;;;231.10;1945.60;;;;;;5034001;28;20076;-63
2022/01/02 02:27:01;;;;;;;24.75;14.48;;;231.20;1945.60;;;;;;5035152;28;20025;-64
2022/01/02 02:29:27;;;;;;;33.13;17.75;;;231.10;1945.60;;;;;;5034058;28;20033;-64
2022/01/02 02:31:55;;;;;;;26.33;14.85;;;231.10;1945.60;;;;;;5034953;28;20029;-64
2022/01/02 02:34:20;;;;;;;22.40;12.60;;;231.10;1920.00;;;;;;5034634;28;20502;-64
2022/01/02 02:36:46;;;;;;;18.63;11.05;;;231.10;1945.60;;;;;;5034930;28;20033;-64
2022/01/02 02:39:12;;;;;;;18.85;11.40;;;231.00;1945.60;;;;;;5034544;28;20025;-64
2022/01/02 02:41:41;;;;;;;17.25;10.30;;;231.10;1945.60;;;;;;5034520;28;20045;-65
2022/01/02 02:44:18;;;;;;;20.95;11.18;;;231.10;1945.60;;;;;;5034731;28;20171;-65
2022/01/02 02:49:28;;;;;;;28.92;15.93;;;231.00;1945.60;;;;;;5034536;28;20032;-64
2022/01/02 02:51:59;;;;;;;48.92;26.52;;;231.00;1945.60;;;;;;5034644;28;20025;-64
2022/01/02 02:54:29;;;;;;;53.22;29.67;;;231.00;1920.00;;;;;;5034605;28;20037;-65
2022/01/02 02:56:59;;;;;;;41.28;23.60;;;231.00;1945.60;;;;;;5033023;28;20029;-65
2022/01/02 02:59:28;;;;;;;36.72;20.00;;;230.90;1920.00;;;;;;5033434;28;20463;-64
2022/01/02 03:01:54;;;;;;;36.17;20.10;;;230.90;1945.60;;;;;;5031694;28;20040;-65
2022/01/02 03:04:21;;;;;;;28.55;16.27;;;231.00;1920.00;;;;;;5034450;28;20104;-65
2022/01/02 03:06:47;;;;;;;21.08;12.55;;;230.90;1945.60;;;;;;5034311;28;20030;-65
2022/01/02 03:09:13;;;;;;;21.50;12.43;;;231.00;1945.60;;;;;;5034194;28;20022;-65
2022/01/02 03:11:41;;;;;;;17.35;11.18;;;231.00;1920.00;;;;;;5034331;28;20095;-65
2022/01/02 03:14:09;;;;;;;19.98;11.85;;;230.90;1945.60;;;;;;5034236;28;20041;-64
2022/01/02 03:16:36;;;;;;;24.40;13.80;;;230.90;1945.60;;;;;;5033584;28;20506;-64
2022/01/02 03:19:02;;;;;;;20.13;12.18;;;230.90;1920.00;;;;;;5033928;28;20080;-65
2022/01/02 03:21:28;;;;;;;20.27;12.88;;;230.80;1945.60;;;;;;5033966;28;20044;-64
2022/01/02 03:23:54;;;;;;;27.63;16.77;;;230.90;1945.60;;;;;;5033936;28;20026;-64
2022/01/02 03:26:21;;;;;;;61.55;31.58;;;230.80;1920.00;;;;;;5034070;28;20033;-64
2022/01/02 03:28:47;;;;;;;109.32;56.05;;;230.80;1945.60;;;;;;5034017;28;20021;-64
2022/01/02 03:31:13;;;;;;;177.18;85.35;;;230.90;1920.00;;;;;;5033792;28;20096;-64
2022/01/02 03:33:38;;;;;;;174.13;83.25;;;230.80;1920.00;;;;;;5032908;28;20470;-64
2022/01/02 03:36:05;;;;;;;147.85;68.97;;;230.80;1945.60;;;;;;5034540;28;20152;-63
2022/01/02 03:38:31;;;;;;;197.13;90.03;;;230.80;1920.00;;;;;;5033891;28;20055;-62
2022/01/02 03:40:57;;;;;;;244.85;108.40;;;230.80;1920.00;;;;;;5033652;28;20049;-62
2022/01/02 03:43:23;;;;;;;288.70;127.53;;;230.70;1920.00;;;;;;5034169;28;20356;-62
2022/01/02 03:45:49;;;;;;;289.50;130.15;;;230.70;1920.00;;;;;;5032331;28;20021;-62
2022/01/02 03:48:14;;;;;;;215.90;100.88;;;230.70;1920.00;;;;;;5033789;28;20041;-62
2022/01/02 03:50:41;;;;;;;146.98;65.13;;;230.70;1920.00;;;;;;5033731;28;20096;-62
2022/01/02 03:53:07;;;;;;;103.75;48.97;;;230.70;1920.00;;;;;;5033774;28;20026;-62
2022/01/02 03:55:33;;;;;;;57.97;29.60;;;230.60;1920.00;;;;;;5033553;28;20048;-61
2022/01/02 03:57:59;;;;;;;52.83;27.15;;;230.50;1920.00;;;;;;5033662;28;20025;-62
2022/01/02 04:00:25;;;;;;;40.35;21.02;;;230.60;1945.60;;;;;;5033392;28;20156;-63
2022/01/02 04:02:50;;;;;;;36.03;17.98;;;230.60;1920.00;;;;;;5032252;28;20048;-62
2022/01/02 04:05:17;;;;;;;30.92;16.42;;;230.60;1920.00;;;;;;5033396;28;20053;-65
2022/01/02 04:07:44;;;;;;;26.67;14.18;;;230.60;1920.00;;;;;;5033478;28;20052;-62
2022/01/02 04:10:12;;;;;;;28.75;15.15;;;230.50;1920.00;;;;;;5033551;28;20022;-62
2022/01/02 04:12:38;;;;;;;37.78;18.95;;;230.50;1945.60;;;;;;5033408;28;20052;-62
2022/01/02 04:15:07;;;;;;;37.17;19.05;;;230.50;1920.00;;;;;;5037142;28;20040;-62
2022/01/02 04:17:33;;;;;;;41.58;20.35;;;230.50;1920.00;;;;;;5037393;28;20052;-62
2022/01/02 04:20:00;;;;;;;26.08;15.80;;;230.50;1945.60;;;;;;5037537;28;20098;-64
2022/01/02 04:22:26;;;;;;;27.80;15.65;;;230.50;1920.00;;;;;;5037252;28;20029;-63
2022/01/02 04:24:52;;;;;;;26.08;14.35;;;230.40;1945.60;;;;;;5037453;28;20025;-63
2022/01/02 04:27:19;;;;;;;24.20;14.52;;;205.70;1945.60;;;;;;5037422;28;20030;-63
2022/01/02 04:29:46;;;;;;;25.92;15.18;;;205.70;1945.60;;;;;;5037424;28;20057;-63
2022/01/02 04:32:15;;;;;;;24.35;13.27;;;230.40;1971.20;;;;;;5036659;28;20056;-63
2022/01/02 04:34:41;;;;;;;25.95;15.50;;;230.40;1945.60;;;;;;5037051;28;20453;-63
2022/01/02 04:37:07;;;;;;;34.90;18.55;;;230.40;1945.60;;;;;;5036965;28;20029;-63
2022/01/02 04:39:34;;;;;;;38.88;17.73;;;230.50;1920.00;;;;;;5036719;28;20042;-63
2022/01/02 04:42:00;;;;;;;24.13;14.98;;;230.40;1945.60;;;;;;5036996;28;20116;-63
2022/01/02 04:44:26;;;;;;;27.58;14.75;;;230.40;1945.60;;;;;;5036894;28;20049;-63
2022/01/02 04:46:52;;;;;;;24.38;13.75;;;230.40;1920.00;;;;;;5036838;28;20419;-63
2022/01/02 04:49:18;;;;;;;22.77;12.70;;;230.40;1945.60;;;;;;5035818;28;20028;-63
2022/01/02 04:51:44;;;;;;;21.55;13.15;;;205.70;1945.60;;;;;;5036444;28;20040;-63
2022/01/02 04:54:10;;;;;;;17.13;11.27;;;205.70;1945.60;;;;;;5036891;28;20456;-62
2022/01/02 04:56:36;;;;;;;17.25;11.27;;;205.70;1920.00;;;;;;5036822;28;20040;-63
2022/01/02 04:59:02;;;;;;;18.40;10.77;;;205.70;1945.60;;;;;;5036818;28;20025;-63
2022/01/02 05:01:28;;;;;;;16.27;9.93;;;205.70;1945.60;;;;;;5036457;28;20079;-64
2022/01/02 05:03:54;;;;;;;15.23;10.02;;;205.70;1945.60;;;;;;5036615;28;20023;-64
2022/01/02 05:06:19;;;;;;;16.45;11.07;;;205.70;1920.00;;;;;;5036371;28;20044;-63
2022/01/02 05:08:46;;;;;;;17.45;11.13;;;205.70;1945.60;;;;;;5035895;28;20025;-64
2022/01/02 05:11:13;;;;;;;16.70;10.93;;;205.70;1945.60;;;;;;5035095;28;20048;-63
2022/01/02 05:13:39;;;;;;;20.35;12.43;;;205.70;1945.60;;;;;;5036407;28;20034;-64
2022/01/02 05:16:05;;;;;;;19.73;12.50;;;205.60;1945.60;;;;;;5034955;28;20034;-63
2022/01/02 05:18:31;;;;;;;19.65;12.45;;;205.70;1945.60;;;;;;5036146;28;20071;-63
2022/01/02 05:20:57;;;;;;;27.85;17.10;;;205.70;1945.60;;;;;;5036119;28;20550;-64
2022/01/02 05:23:23;;;;;;;29.52;17.13;;;205.60;1945.60;;;;;;5035950;28;20017;-64
2022/01/02 05:25:48;;;;;;;29.45;16.58;;;205.60;1945.60;;;;;;5035350;28;20026;-63
2022/01/02 05:28:14;;;;;;;22.63;14.55;;;205.60;1945.60;;;;;;5035705;28;20025;-64
2022/01/02 05:30:41;;;;;;;24.73;13.55;;;205.70;1945.60;;;;;;5036140;28;20056;-64
2022/01/02 05:33:08;;;;;;;20.33;13.50;;;205.60;1945.60;;;;;;5036188;28;20101;-63
2022/01/02 05:35:34;;;;;;;20.23;12.60;;;205.60;1945.60;;;;;;5035874;28;20037;-63
2022/01/02 05:38:01;;;;;;;21.88;12.65;;;205.70;1945.60;;;;;;5035535;28;20030;-63
2022/01/02 05:40:32;;;;;;;19.42;11.98;;;205.70;1945.60;;;;;;5035701;28;20087;-64
2022/01/02 05:43:07;;;;;;;20.15;12.18;;;205.70;1945.60;;;;;;5035786;28;20493;-63
2022/01/02 05:45:33;;;;;;;17.10;10.80;;;205.70;1920.00;;;;;;5035733;28;20108;-64
2022/01/02 05:48:01;;;;;;;21.45;12.35;;;205.70;1920.00;;;;;;5035149;28;20116;-64
2022/01/02 05:50:26;;;;;;;18.05;11.77;;;205.70;1920.00;;;;;;5035862;28;20029;-63
2022/01/02 05:52:52;;;;;;;20.23;12.57;;;205.70;1920.00;;;;;;5035794;28;20375;-63
2022/01/02 05:55:18;;;;;;;20.58;12.77;;;205.70;1920.00;;;;;;5035466;28;20094;-62
2022/01/02 05:57:43;;;;;;;27.38;16.08;;;205.70;1920.00;;;;;;5035424;28;20025;-62
2022/01/02 06:00:10;;;;;;;26.95;16.50;;;205.70;1920.00;;;;;;5035573;28;20033;-62
2022/01/02 06:02:36;;;;;;;27.95;17.08;;;205.70;1920.00;;;;;;5035350;28;20038;-62
2022/01/02 06:05:03;;;;;;;24.17;14.95;;;205.70;1894.40;;;;;;5035756;28;20024;-63
2022/01/02 06:07:31;;;;;;;26.65;14.45;;;205.60;1920.00;;;;;;5035444;28;20025;-64
2022/01/02 06:09:57;;;;;;;19.80;13.00;;;205.60;1920.00;;;;;;5035054;28;20021;-64
2022/01/02 06:12:23;;;;;;;20.80;13.85;;;205.60;1920.00;;;;;;5035263;28;20029;-63
2022/01/02 06:14:49;;;;;;;18.30;12.07;;;205.60;1920.00;;;;;;5035414;28;20018;-63
2022/01/02 06:17:15;;;;;;;19.52;12.00;;;205.50;1920.00;;;;;;5035044;28;20057;-65
2022/01/02 06:19:41;;;;;;;18.02;12.20;;;205.60;1920.00;;;;;;5035330;28;20045;-64
2022/01/02 06:22:07;;;;;;;19.52;12.60;;;205.50;1945.60;;;;;;5034781;28;20037;-63
2022/01/02 06:24:33;;;;;;;23.90;14.27;;;205.50;1945.60;;;;;;5034981;28;20028;-63
2022/01/02 06:26:58;;;;;;;33.88;17.70;;;205.40;1945.60;;;;;;5034980;28;20087;-63
2022/01/02 06:29:24;;;;;;;32.72;19.00;;;205.40;1945.60;;;;;;5033042;28;20026;-63
2022/01/02 06:31:50;;;;;;;26.38;17.58;;;205.50;1920.00;;;;;;5034725;28;20025;-63
2022/01/02 06:34:16;;;;;;;28.90;18.23;;;205.40;1945.60;;;;;;5034941;28;20109;-67
2022/01/02 06:36:42;;;;;;;28.98;16.00;;;205.40;1945.60;;;;;;5034539;28;20025;-67
2022/01/02 06:39:07;;;;;;;22.83;14.70;;;205.40;1920.00;;;;;;5034640;28;20032;-63
2022/01/02 06:41:33;;;;;;;24.52;14.93;;;205.40;1945.60;;;;;;5034453;28;20060;-62
2022/01/02 06:43:59;;;;;;;20.13;13.20;;;205.40;1945.60;;;;;;5034670;28;20053;-63
2022/01/02 06:46:25;;;;;;;21.23;14.65;;;205.30;1945.60;;;;;;5032220;28;20033;-63
2022/01/02 06:48:50;;;;;;;22.52;14.27;;;205.30;1945.60;;;;;;5034682;28;20038;-63
2022/01/02 06:51:16;;;;;;;26.52;15.18;;;205.20;1971.20;;;;;;5034440;28;20025;-63
2022/01/02 06:53:42;;;;;;;27.95;15.00;;;205.30;1945.60;;;;;;5034667;28;20021;-63
2022/01/02 06:56:07;;;;;;;22.40;13.85;;;205.20;1945.60;;;;;;5034418;28;20025;-63
2022/01/02 06:58:38;;;;;;;23.02;14.82;;;205.20;1945.60;;;;;;5034310;28;20022;-62
2022/01/02 07:01:04;;;;;;;22.35;14.07;;;205.30;1971.20;;;;;;5034253;28;20048;-63
2022/01/02 07:03:30;;;;;;;25.65;15.85;;;205.30;1945.60;;;;;;5034489;28;20153;-63
2022/01/02 07:05:56;;;;;;;32.13;19.27;;;205.30;1971.20;;;;;;5034174;28;20064;-63
2022/01/02 07:08:22;;;;;;;36.53;22.42;;;205.30;1945.60;;;;;;5034363;28;20113;-63
2022/01/02 07:10:47;;;;;;;44.08;25.88;;;205.30;1945.60;;;;;;5034330;28;20489;-63
2022/01/02 07:13:13;;;;;;;47.70;27.60;;;205.30;1971.20;;;;;;5034211;28;20472;-63
2022/01/02 07:15:39;;;;;;;44.92;26.10;;;205.20;1971.20;;;;;;5033994;28;20398;-63
2022/01/02 07:18:04;;;;;;;44.35;25.33;;;205.30;1971.20;;;;;;5034447;28;20112;-63
2022/01/02 07:20:30;;;;;;;42.95;25.48;;;205.30;1971.20;;;;;;5034092;28;20036;-63
2022/01/02 07:22:56;;;;;;;33.50;21.52;;;205.30;1971.20;;;;;;5034495;28;20092;-63
2022/01/02 07:25:21;;;;;;;32.75;19.48;;;205.30;1971.20;;;;;;5033379;28;20026;-63
2022/01/02 07:27:47;;;;;;;26.40;17.30;;;205.40;1971.20;;;;;;5034125;28;20037;-63
2022/01/02 07:30:13;;;;;;;26.90;17.17;;;205.40;1971.20;;;;;;5033925;28;20578;-63
2022/01/02 07:32:39;;;;;;;31.85;20.25;;;205.40;1971.20;;;;;;5033327;28;20116;-63
2022/01/02 07:35:06;;;;;;;35.83;20.05;;;205.40;1971.20;;;;;;5033771;28;20037;-63
2022/01/02 07:37:33;;;;;;;55.30;29.00;;;205.50;1971.20;;;;;;5033424;28;20029;-63
2022/01/02 07:39:59;;;;;;;57.60;29.35;;;205.50;1971.20;;;;;;5033528;28;20076;-63
2022/01/02 07:42:25;;;;;;;53.83;28.02;;;205.60;1945.60;;;;;;5033710;28;20488;-63
2022/01/02 07:44:51;;;;;;;44.85;25.08;;;205.50;1971.20;;;;;;5033737;28;20356;-63
2022/01/02 07:47:17;;;;;;;43.25;22.98;;;205.50;1971.20;;;;;;5033391;28;20067;-63
2022/01/02 07:49:42;;;;;;;39.80;22.13;;;205.50;1971.20;;;;;;5033214;28;20026;-63
2022/01/02 07:52:08;;;;;;;32.00;20.15;;;205.50;1971.20;;;;;;5033740;28;20164;-63
2022/01/02 07:54:34;;;;;;;29.73;18.45;;;205.60;1971.20;;;;;;5033435;28;20026;-63
2022/01/02 07:57:00;;;;;;;24.45;16.02;;;205.60;1971.20;;;;;;5033133;28;20053;-63
2022/01/02 07:59:26;;;;;;;26.35;16.73;;;205.60;1996.80;;;;;;5033680;28;20109;-64
2022/01/02 08:01:51;;;;;;;35.58;20.35;;;205.70;1971.20;;;;;;5033298;28;20057;-64
2022/01/02 08:04:18;;;;;;;39.53;20.77;;;205.70;1996.80;;;;;;5033484;28;20031;-64
2022/01/02 08:06:45;;;;;;;40.08;21.95;;;230.40;1971.20;;;;;;5031834;28;20079;-64
2022/01/02 08:09:10;;;;;;;42.17;22.38;;;230.50;1971.20;;;;;;5033559;28;20045;-64
2022/01/02 08:11:36;;;;;;;38.13;20.92;;;230.40;1971.20;;;;;;5033474;28;20393;-65
2022/01/02 08:14:02;;;;;;;38.15;18.10;;;230.50;1971.20;;;;;;5033138;28;20026;-62
2022/01/02 08:16:28;;;;;;;42.95;17.00;;;230.70;2124.80;;;;;;5032208;28;20103;-63
2022/01/02 08:18:53;;;;;;;27.83;15.57;;;230.80;1996.80;;;;;;5032957;28;20029;-64
2022/01/02 08:21:19;;;;;;;30.65;15.52;;;230.70;1996.80;;;;;;5033114;28;20088;-63
2022/01/02 08:23:45;;;;;;;26.45;13.65;;;230.60;1971.20;;;;;;5033564;28;20017;-63
2022/01/02 08:26:10;;;;;;;21.75;13.93;;;230.70;1971.20;;;;;;5033405;28;20029;-63
2022/01/02 08:28:36;;;;;;;24.65;14.52;;;230.70;1996.80;;;;;;5033375;28;20486;-63
2022/01/02 08:31:02;;;;;;;23.98;15.32;;;230.70;1971.20;;;;;;5033225;28;20025;-63
2022/01/02 08:33:28;;;;;;;61.38;21.77;;;230.70;1996.80;;;;;;5033052;28;20052;-67
2022/01/02 08:35:53;;;;;;;40.67;15.25;;;230.90;2124.80;;;;;;5033135;28;20357;-62
2022/01/02 08:38:19;;;;;;;28.92;15.82;;;231.30;2150.40;;;;;;5033166;28;20033;-63
2022/01/02 08:40:45;;;;;;;54.85;29.60;;;256.00;2073.60;;;;;;5032900;28;20052;-63
2022/01/02 08:43:11;;;;;;;78.70;42.50;;;256.00;1996.80;;;;;;5032435;28;20029;-62
2022/01/02 08:45:38;;;;;;;67.38;34.38;;;256.00;1971.20;;;;;;5032623;28;20360;-63
2022/01/02 08:48:04;;;;;;;148.50;59.35;;;256.00;1996.80;;;;;;5033262;28;20052;-64
2022/01/02 08:50:30;;;;;;;232.75;98.38;;;256.10;1996.80;;;;;;5033029;28;20095;-63
2022/01/02 08:52:56;;;;;;;199.02;99.40;;;256.10;1996.80;;;;;;5033191;28;20025;-64
2022/01/02 08:55:22;;;;;;;134.63;72.60;;;256.20;2022.40;;;;;;5032810;28;20088;-66
2022/01/02 08:57:48;;;;;;;78.60;42.72;;;256.30;1996.80;;;;;;5033038;28;20029;-62
2022/01/02 09:00:14;;;;;;;47.00;27.55;;;256.30;1996.80;;;;;;5033323;28;20382;-60
2022/01/02 09:02:40;;;;;;;41.97;24.15;;;256.40;1996.80;;;;;;5036229;28;20033;-64
2022/01/02 09:05:08;;;;;;;39.17;23.45;;;256.40;1996.80;;;;;;5035489;28;20100;-62
2022/01/02 09:07:34;;;;;;;31.08;18.65;;;256.50;1996.80;;;;;;5036340;28;20036;-62
2022/01/02 09:10:01;;;;;;;27.63;16.00;;;256.60;2022.40;;;;;;5036620;28;20022;-63
2022/01/02 09:12:26;;;;;;;21.50;12.15;;;256.70;1996.80;;;;;;5035958;28;20120;-63
2022/01/02 09:14:52;;;;;;;21.25;12.93;;;256.80;2022.40;;;;;;5035214;28;20457;-63
2022/01/02 09:17:18;;;;;;;19.27;12.63;;;256.80;2022.40;;;;;;5036122;28;20410;-62
2022/01/02 09:19:44;;;;;;;15.75;10.30;;;281.60;2048.00;;;;;;5043536;28;20022;-62
2022/01/02 09:22:10;;;;;;;16.13;10.52;;;281.60;2048.00;;;;;;5041547;28;20041;-65
2022/01/02 09:24:35;;;;;;;17.20;11.27;;;281.70;2022.40;;;;;;5038889;28;20038;-66
2022/01/02 09:27:01;;;;;;;17.95;12.10;;;281.70;2048.00;;;;;;5036211;28;20029;-63
2022/01/02 09:29:28;;;;;;;18.67;14.52;;;281.80;2022.40;;;;;;5045026;28;20032;-62
2022/01/02 09:31:53;;;;;;;21.00;15.38;;;281.80;2048.00;;;;;;5036013;28;20034;-61
2022/01/02 09:34:19;;;;;;;24.20;14.75;;;281.90;2048.00;;;;;;5035940;28;20444;-62
2022/01/02 09:36:45;;;;;;;26.33;14.77;;;282.00;2048.00;;;;;;5036033;28;20032;-65
2022/01/02 09:39:11;;;;;;;21.90;13.43;;;282.00;2022.40;;;;;;5035594;28;20049;-66
2022/01/02 09:41:39;;;;;;;22.92;13.55;;;282.10;2022.40;;;;;;5035876;28;20064;-64
2022/01/02 09:44:05;;;;;;;20.63;13.45;;;282.20;2022.40;;;;;;5035949;28;20028;-63
2022/01/02 09:46:32;;;;;;;21.83;14.48;;;282.20;2022.40;;;;;;5035205;28;20041;-66
2022/01/02 09:48:58;;;;;;;35.15;15.32;;;282.30;2048.00;;;;;;5035622;28;20064;-62
2022/01/02 09:51:26;;;;;;;22.98;14.18;;;307.30;2278.40;;;;;;5035572;28;20069;-63
2022/01/02 09:53:54;;;;;;;20.98;13.40;;;307.40;2176.00;;;;;;5035538;28;20467;-64
2022/01/02 09:56:20;;;;;;;19.02;11.80;;;307.50;2073.60;;;;;;5035388;28;20069;-62
2022/01/02 09:58:46;;;;;;;18.40;11.50;;;307.50;2048.00;;;;;;5035614;28;20036;-67
2022/01/02 10:01:19;;;;;;;21.90;13.57;;;307.60;2022.40;;;;;;5035255;28;20391;-64
2022/01/02 10:03:50;;;;;;;16.17;11.57;;;307.60;2022.40;;;;;;5034215;28;20045;-61
2022/01/02 10:06:17;;;;;;;20.10;11.18;;;307.70;2022.40;;;;;;5037910;28;20034;-61
2022/01/02 10:08:43;;;;;;;19.98;12.68;;;307.70;1996.80;;;;;;5043732;28;20520;-61
2022/01/02 10:11:20;;;;;;;22.73;12.82;;;307.70;1996.80;;;;;;5043467;28;20082;-62
2022/01/02 10:13:50;;;;;;;20.63;13.77;;;307.80;2022.40;;;;;;5042364;28;20375;-62
2022/01/02 10:16:40;;;;;;;18.35;12.45;;;307.80;2022.40;;;;;;5042733;28;20042;-61
2022/01/02 10:19:29;;;;;;;18.02;12.10;;;307.90;2022.40;;;;;;5043323;28;20070;-61
2022/01/02 10:22:01;;;;;;;19.38;11.77;;;308.00;2022.40;;;;;;5042725;28;20036;-61
2022/01/02 10:24:37;;;;;;;19.08;11.45;;;308.10;2022.40;;;;;;5040413;28;20030;-62
2022/01/02 10:27:23;;;;;;;16.30;10.85;;;308.10;1996.80;;;;;;5042305;28;20025;-62
2022/01/02 10:29:50;;;;;;;15.65;9.50;;;332.80;2048.00;;;;;;5040892;28;20031;-62
2022/01/02 10:32:29;;;;;;;13.57;9.07;;;332.90;2022.40;;;;;;5042955;28;20467;-61
2022/01/02 10:35:14;;;;;;;17.23;8.73;;;332.90;2022.40;;;;;;5015058;28;20030;-64
2022/01/02 10:37:43;;;;;;;16.65;9.60;;;333.00;2022.40;;;;;;5013934;28;20531;-62
2022/01/02 10:40:32;;;;;;;11.23;8.20;;;333.10;2022.40;;;;;;5014991;28;20050;-62
2022/01/02 10:43:00;;;;;;;18.45;8.60;;;333.20;2022.40;;;;;;5042352;28;20036;-65
2022/01/02 10:45:41;;;;;;;29.42;19.20;;;333.20;1971.20;;;;;;5054584;28;20021;-62
2022/01/02 10:48:12;;;;;;;161.02;67.03;;;333.30;1996.80;;;;;;5054564;28;20052;-63
2022/01/02 10:50:40;;;;;;;186.68;74.03;;;333.30;1971.20;;;;;;5054360;28;20021;-62
2022/01/02 10:53:17;;;;;;;159.23;60.17;;;333.40;1971.20;;;;;;5053094;28;20478;-61
2022/01/02 10:55:46;;;;;;;56.92;28.00;;;333.40;1971.20;;;;;;5054247;28;20025;-60
2022/01/02 10:58:13;;;;;;;46.67;22.75;;;333.50;1945.60;;;;;;5054476;28;20048;-61
2022/01/02 11:00:40;;;;;;;35.40;16.92;;;333.50;1945.60;;;;;;5054200;28;20025;-61
2022/01/02 11:03:06;;;;;;;32.03;16.42;;;333.60;1945.60;;;;;;5054298;28;20470;-62
2022/01/02 11:05:36;;;;;;;23.98;12.77;;;333.60;1945.60;;;;;;5054236;28;20035;-62
2022/01/02 11:08:03;;;;;;;20.13;11.55;;;333.60;1945.60;;;;;;5054102;28;20029;-61
2022/01/02 11:10:35;;;;;;;18.45;10.63;;;333.70;1920.00;;;;;;5054184;28;20036;-62
2022/01/02 11:13:05;;;;;;;16.50;10.85;;;358.40;1920.00;;;;;;5054043;28;20029;-61
2022/01/02 11:15:32;;;;;;;17.73;11.95;;;358.40;1894.40;;;;;;5054152;28;20028;-61
2022/01/02 11:17:59;;;;;;;20.48;13.52;;;358.50;1920.00;;;;;;5053503;28;20032;-61
2022/01/02 11:20:30;;;;;;;19.08;12.40;;;358.60;1894.40;;;;;;5053977;28;20017;-61
2022/01/02 11:22:58;;;;;;;18.10;12.23;;;358.60;1894.40;;;;;;5053265;28;20033;-62
2022/01/02 11:25:42;;;;;;;20.48;11.77;;;358.60;1894.40;;;;;;5052553;28;20033;-62
2022/01/02 11:28:25;;;;;;;15.63;11.30;;;358.60;1894.40;;;;;;5051842;28;20033;-61
2022/01/02 11:30:52;;;;;;;14.30;10.38;;;358.70;1894.40;;;;;;5048247;28;20035;-61
2022/01/02 11:33:25;;;;;;;13.27;9.05;;;358.80;1894.40;;;;;;5053651;28;20070;-61
2022/01/02 11:35:51;;;;;;;14.38;10.13;;;358.80;1894.40;;;;;;5052434;28;20024;-62
2022/01/02 11:38:21;;;;;;;12.40;9.52;;;358.90;1868.80;;;;;;5053693;28;20340;-61
2022/01/02 11:41:05;;;;;;;13.32;8.88;;;358.90;1868.80;;;;;;5052226;28;20049;-61
2022/01/02 11:43:49;;;;;;;14.85;9.57;;;358.90;1843.20;;;;;;5053566;28;20066;-61
2022/01/02 11:46:15;;;;;;;;;;;358.90;1868.80;;;;;;5046542;28;20049;-61
2022/01/02 11:48:41;;;;;;;14.70;9.48;;;359.00;1868.80;;;;;;5033346;28;20270;-61
2022/01/02 11:51:07;;;;;;;15.27;8.02;;;359.00;1868.80;;;;;;5032314;28;20051;-62
2022/01/02 11:53:36;;;;;;;14.25;7.88;;;359.10;1868.80;;;;;;5032203;28;20029;-61
2022/01/02 11:56:03;;;;;;;13.25;7.68;;;359.10;1843.20;;;;;;5033671;28;20033;-61
2022/01/02 11:58:37;;;;;;;10.60;8.20;;;359.10;1843.20;;;;;;5032242;28;20030;-62
2022/01/02 12:01:04;;;;;;;10.10;7.38;;;359.10;1843.20;;;;;;5032092;28;20030;-61
2022/01/02 12:03:38;;;;;;;12.07;8.18;;;359.10;1843.20;;;;;;5033293;28;20034;-61
2022/01/02 12:06:33;;;;;;;11.48;7.50;;;359.20;1843.20;;;;;;5032508;28;20075;-61